Impacts TAF Board INFO
FOR SITUATIONAL AWARENESS. NOT TO BE USED FOR FLIGHT PLANNING PURPOSES.
IDs:

KHDC - Hammond/Northshore R, LA, US

Issued at 0540 UTC 18 Nov 2017
Updated at 0815 UTC 18 Nov 2017
Potential Impact None Slight Moderate High
Time0755Z 18/09Z 18/10Z 18/11Z 18/12Z 18/13Z 18/14Z 18/15Z 18/16Z 18/17Z 18/18Z 18/19Z 18/20Z 18/21Z>>
Type OBS PRVL PRVL PRVL PRVL PRVL PRVL PRVL PRVL PRVL PRVL PRVL PRVL
  [PRB30]  
PRVL
  [PRB30]  
VIS 3 5 4 4 4 4 >6 >6 >6 >6 >6 >6 >6
  [4]  
>6
  [4]  
CIG 33 -- -- -- -- -- 50 50 25 25 25 25 25
  [20]  
25
  [20]  
Cover BKN SCT SCT SCT SCT SCT BKN BKN BKN BKN BKN BKN BKN
  [BKN]  
BKN
  [BKN]  
FltCat MVFR MVFR MVFR MVFR MVFR MVFR VFR VFR MVFR MVFR MVFR MVFR MVFR
  [MVFR]  
MVFR
  [MVFR]  
WX BR BR BR BR BR BR -- -- -- -- -- -- --
  [-SHRA]  
--
  [-SHRA]  
WDir 180 VRB VRB VRB VRB VRB 200 200 210 210 210 210 210
[210]
210
[210]
WSpd 4 3 3 3 3 3 10 10 14 14 14 14 14
  [14]  
14
  [14]  
WGst -- -- -- -- -- -- -- -- -- -- -- -- --
  [--]  
--
  [--]  

Raw TAF
KHDC 180540Z 1806/1906 VRB03KT 5SM BR FEW010 SCT250
  FM181000 VRB03KT 4SM BR FEW003 SCT250
  FM181400 20010KT P6SM SCT006 BKN050
  FM181600 21014KT P6SM SCT010 BKN025
  PROB30 1820/1823 4SM -SHRA BKN020
  FM182300 24010KT P6SM SCT015 BKN025
  FM190400 34012KT P6SM SCT050


Raw METAR
KHDC 180755Z AUTO 18004KT 3SM BR BKN033 16/16 A2994 RMK AO2
KHDC 180735Z AUTO 18004KT 1SM BR BKN033 16/16 A2994 RMK AO2
KHDC 180715Z AUTO 18003KT 1SM BR VV007 16/16 A2995 RMK AO2
KHDC 180655Z AUTO 00000KT 3SM BR SCT030 16/16 A2995 RMK AO2
KHDC 180635Z AUTO 17003KT 4SM BR CLR 16/16 A2996 RMK AO2
KHDC 180615Z AUTO 16004KT 5SM BR CLR 16/16 A2997 RMK AO2
KHDC 180555Z AUTO 16003KT 5SM BR CLR 16/16 A2998 RMK AO2
KHDC 180535Z AUTO 16003KT 5SM BR CLR 16/16 A2998 RMK AO2

METAR Board
Radar Display
Forecast Discussion

FOR SITUATIONAL AWARENESS. NOT TO BE USED FOR FLIGHT PLANNING PURPOSES.